VOZ1498 YBHM-YBBN
Flight info
| Callsign | VOZ1498 |
|---|---|
| Flight time | N/A |
| Altitude | 19000 |
| Route | OVRON B462 MK V153 MUNAR/N0451F330 Y61 RUROX/N0453F350 Y177 BN |
| Aircraft | B738/M-SAE3DGHIM1RWZ/LB1 |
Departure
| Time | 2026-04-18 07:51 |
|---|---|
| Airport | Hamilton Island Airport (YBHM) |
Arrival
| Time | N/A |
|---|---|
| Airport | Brisbane International Airport (YBBN) |
| Time | Latitude | Longitude | Altitude | Speed | Heading |
|---|---|---|---|---|---|
| 2026-04-18 07:29 | -20.35253 | 148.94990 | 19 ft | 0 kts | 142° |
| 2026-04-18 07:46 | -20.35257 | 148.94991 | 19 ft | 1 kts | 155° |
| 2026-04-18 07:47 | -20.35264 | 148.94986 | 20 ft | 1 kts | 223° |
| 2026-04-18 07:47 | -20.35270 | 148.94976 | 19 ft | 2 kts | 240° |
| 2026-04-18 07:47 | -20.35289 | 148.94974 | 19 ft | 4 kts | 168° |
| 2026-04-18 07:47 | -20.35330 | 148.94998 | 19 ft | 9 kts | 155° |
| 2026-04-18 07:48 | -20.35380 | 148.94974 | 19 ft | 9 kts | 227° |
| 2026-04-18 07:48 | -20.35414 | 148.94923 | 21 ft | 8 kts | 250° |
| 2026-04-18 07:48 | -20.35385 | 148.94874 | 21 ft | 8 kts | 322° |
| 2026-04-18 07:48 | -20.35332 | 148.94832 | 20 ft | 11 kts | 323° |
| 2026-04-18 07:49 | -20.35252 | 148.94768 | 20 ft | 17 kts | 323° |
| 2026-04-18 07:49 | -20.35146 | 148.94691 | 18 ft | 12 kts | 348° |
| 2026-04-18 07:49 | -20.35078 | 148.94674 | 18 ft | 6 kts | 282° |
| 2026-04-18 07:49 | -20.35104 | 148.94645 | 20 ft | 6 kts | 185° |
| 2026-04-18 07:50 | -20.35131 | 148.94672 | 18 ft | 0 kts | 142° |
| 2026-04-18 07:50 | -20.35273 | 148.94785 | 21 ft | 64 kts | 143° |
| 2026-04-18 07:50 | -20.35838 | 148.95237 | 23 ft | 137 kts | 142° |
| 2026-04-18 07:51 | -20.36649 | 148.95921 | 617 ft | 149 kts | 138° |
| 2026-04-18 07:51 | -20.37590 | 148.96568 | 1232 ft | 177 kts | 160° |
| 2026-04-18 07:51 | -20.38894 | 148.96866 | 1605 ft | 208 kts | 167° |
| 2026-04-18 07:51 | -20.40385 | 148.97212 | 1943 ft | 227 kts | 166° |
| 2026-04-18 07:52 | -20.42000 | 148.97636 | 2319 ft | 249 kts | 164° |
| 2026-04-18 07:52 | -20.43696 | 148.98103 | 3167 ft | 254 kts | 165° |
| 2026-04-18 07:52 | -20.45416 | 148.98570 | 4066 ft | 256 kts | 164° |
| 2026-04-18 07:52 | -20.47155 | 148.99043 | 4965 ft | 260 kts | 164° |
| 2026-04-18 07:53 | -20.48924 | 148.99528 | 5768 ft | 266 kts | 164° |
| 2026-04-18 07:53 | -20.50725 | 149.00025 | 6597 ft | 270 kts | 165° |
| 2026-04-18 07:53 | -20.52557 | 149.00532 | 7389 ft | 274 kts | 165° |
| 2026-04-18 07:53 | -20.54412 | 149.01046 | 8183 ft | 278 kts | 166° |
| 2026-04-18 07:54 | -20.56294 | 149.01570 | 8976 ft | 281 kts | 167° |
| 2026-04-18 07:54 | -20.58202 | 149.02102 | 9807 ft | 285 kts | 167° |
| 2026-04-18 07:54 | -20.60144 | 149.02644 | 10411 ft | 296 kts | 168° |
| 2026-04-18 07:54 | -20.62224 | 149.03222 | 10599 ft | 320 kts | 167° |
| 2026-04-18 07:55 | -20.64413 | 149.03833 | 11126 ft | 330 kts | 167° |
| 2026-04-18 07:55 | -20.66653 | 149.04461 | 11804 ft | 334 kts | 168° |
| 2026-04-18 07:55 | -20.68913 | 149.05096 | 12545 ft | 337 kts | 168° |
| 2026-04-18 07:55 | -20.71199 | 149.05738 | 13228 ft | 342 kts | 168° |
| 2026-04-18 07:56 | -20.73516 | 149.06389 | 13882 ft | 347 kts | 168° |
| 2026-04-18 07:56 | -20.75866 | 149.07048 | 14470 ft | 351 kts | 168° |
| 2026-04-18 07:56 | -20.78214 | 149.07707 | 15066 ft | 355 kts | 169° |
| 2026-04-18 07:56 | -20.80617 | 149.08382 | 15665 ft | 359 kts | 169° |
| 2026-04-18 07:57 | -20.83049 | 149.09065 | 16257 ft | 364 kts | 169° |
| 2026-04-18 07:57 | -20.85510 | 149.09756 | 16850 ft | 368 kts | 169° |
| 2026-04-18 07:57 | -20.87999 | 149.10455 | 17412 ft | 372 kts | 169° |
| 2026-04-18 07:57 | -20.90515 | 149.11163 | 17993 ft | 376 kts | 170° |
| 2026-04-18 07:58 | -20.95632 | 149.12603 | 19010 ft | 384 kts | 170° |
| 2026-04-18 07:58 | -20.98222 | 149.13332 | 19536 ft | 386 kts | 171° |
| 2026-04-18 07:58 | -21.00822 | 149.14065 | 20119 ft | 387 kts | 171° |
| 2026-04-18 07:59 | -21.03436 | 149.14800 | 20577 ft | 391 kts | 171° |
| 2026-04-18 07:59 | -21.06091 | 149.15546 | 20996 ft | 397 kts | 171° |
| 2026-04-18 07:59 | -21.08773 | 149.16300 | 21427 ft | 401 kts | 170° |
| 2026-04-18 07:59 | -21.11487 | 149.17064 | 21887 ft | 405 kts | 170° |
| 2026-04-18 08:00 | -21.14222 | 149.17835 | 22321 ft | 409 kts | 171° |
| 2026-04-18 08:00 | -21.16986 | 149.18611 | 22746 ft | 413 kts | 170° |
| 2026-04-18 08:00 | -21.19774 | 149.19419 | 23156 ft | 417 kts | 169° |
| 2026-04-18 08:00 | -21.22584 | 149.20263 | 23576 ft | 421 kts | 169° |
| 2026-04-18 08:01 | -21.25419 | 149.21121 | 23941 ft | 424 kts | 169° |
| 2026-04-18 08:01 | -21.28264 | 149.21981 | 24359 ft | 425 kts | 169° |
| 2026-04-18 08:01 | -21.31121 | 149.22841 | 24728 ft | 428 kts | 170° |
| 2026-04-18 08:01 | -21.33998 | 149.23705 | 25109 ft | 430 kts | 170° |
| 2026-04-18 08:02 | -21.36886 | 149.24569 | 25510 ft | 432 kts | 170° |
| 2026-04-18 08:02 | -21.39783 | 149.25435 | 25900 ft | 433 kts | 170° |
| 2026-04-18 08:02 | -21.42690 | 149.26304 | 26280 ft | 435 kts | 170° |
| 2026-04-18 08:02 | -21.45611 | 149.27178 | 26641 ft | 437 kts | 170° |
| 2026-04-18 08:03 | -21.48545 | 149.28059 | 26996 ft | 439 kts | 170° |
| 2026-04-18 08:03 | -21.51479 | 149.29027 | 27345 ft | 444 kts | 167° |
| 2026-04-18 08:03 | -21.54391 | 149.30180 | 27691 ft | 447 kts | 165° |
| 2026-04-18 08:03 | -21.57291 | 149.31422 | 28030 ft | 450 kts | 164° |
| 2026-04-18 08:04 | -21.60193 | 149.32694 | 28366 ft | 452 kts | 163° |
| 2026-04-18 08:04 | -21.63111 | 149.33971 | 28673 ft | 454 kts | 164° |
| 2026-04-18 08:04 | -21.66046 | 149.35242 | 29001 ft | 455 kts | 164° |
| 2026-04-18 08:04 | -21.68997 | 149.36506 | 29324 ft | 457 kts | 165° |
| 2026-04-18 08:05 | -21.71959 | 149.37763 | 29618 ft | 459 kts | 165° |
| 2026-04-18 08:05 | -21.74936 | 149.39020 | 29899 ft | 461 kts | 165° |
| 2026-04-18 08:05 | -21.77926 | 149.40279 | 30176 ft | 462 kts | 165° |
| 2026-04-18 08:05 | -21.80925 | 149.41540 | 30426 ft | 464 kts | 165° |
| 2026-04-18 08:06 | -21.83934 | 149.42806 | 30663 ft | 465 kts | 165° |
| 2026-04-18 08:06 | -21.86952 | 149.44077 | 30900 ft | 467 kts | 165° |
| 2026-04-18 08:06 | -21.89984 | 149.45354 | 31150 ft | 468 kts | 165° |
| 2026-04-18 08:06 | -21.92981 | 149.46618 | 31385 ft | 469 kts | 165° |
| 2026-04-18 08:07 | -21.96023 | 149.47901 | 31614 ft | 471 kts | 165° |
| 2026-04-18 08:07 | -21.99078 | 149.49191 | 31830 ft | 472 kts | 165° |
| 2026-04-18 08:07 | -22.02142 | 149.50485 | 32043 ft | 474 kts | 165° |
| 2026-04-18 08:07 | -22.05217 | 149.51784 | 32250 ft | 476 kts | 166° |
| 2026-04-18 08:08 | -22.08305 | 149.53089 | 32454 ft | 477 kts | 166° |
| 2026-04-18 08:08 | -22.11397 | 149.54397 | 32698 ft | 477 kts | 166° |
| 2026-04-18 08:08 | -22.14484 | 149.55705 | 32990 ft | 476 kts | 166° |
| 2026-04-18 08:09 | -22.20568 | 149.58291 | 33012 ft | 461 kts | 166° |
| 2026-04-18 08:09 | -22.26496 | 149.60807 | 33010 ft | 457 kts | 166° |
| 2026-04-18 08:10 | -22.32416 | 149.63311 | 33004 ft | 457 kts | 166° |
| 2026-04-18 08:10 | -22.38338 | 149.65821 | 33002 ft | 457 kts | 166° |
| 2026-04-18 08:11 | -22.44261 | 149.68337 | 32999 ft | 458 kts | 166° |
| 2026-04-18 08:11 | -22.50188 | 149.70858 | 32998 ft | 458 kts | 166° |
| 2026-04-18 08:12 | -22.55119 | 149.72958 | 33002 ft | 459 kts | 167° |
| 2026-04-18 08:12 | -22.61059 | 149.75489 | 32997 ft | 459 kts | 167° |
| 2026-04-18 08:13 | -22.67004 | 149.78024 | 32985 ft | 459 kts | 167° |
| 2026-04-18 08:13 | -22.72949 | 149.80563 | 32997 ft | 459 kts | 167° |
| 2026-04-18 08:14 | -22.78892 | 149.83102 | 32992 ft | 459 kts | 167° |
| 2026-04-18 08:14 | -22.84832 | 149.85643 | 33003 ft | 459 kts | 167° |
| 2026-04-18 08:15 | -22.90778 | 149.88191 | 32983 ft | 459 kts | 167° |
| 2026-04-18 08:15 | -22.96711 | 149.90733 | 32993 ft | 459 kts | 167° |
| 2026-04-18 08:16 | -23.02645 | 149.93270 | 32985 ft | 458 kts | 167° |
| 2026-04-18 08:16 | -23.08530 | 149.95798 | 32992 ft | 458 kts | 167° |
| 2026-04-18 08:17 | -23.14456 | 149.98347 | 33010 ft | 458 kts | 168° |
| 2026-04-18 08:17 | -23.20383 | 150.00897 | 32995 ft | 458 kts | 168° |
| 2026-04-18 08:18 | -23.26311 | 150.03449 | 32985 ft | 459 kts | 168° |
| 2026-04-18 08:18 | -23.32245 | 150.06006 | 32992 ft | 458 kts | 168° |
| 2026-04-18 08:19 | -23.38180 | 150.08567 | 32986 ft | 459 kts | 168° |
| 2026-04-18 08:19 | -23.44120 | 150.11133 | 33010 ft | 460 kts | 168° |
| 2026-04-18 08:20 | -23.50073 | 150.13705 | 33006 ft | 461 kts | 168° |
| 2026-04-18 08:20 | -23.56038 | 150.16284 | 32993 ft | 461 kts | 168° |
| 2026-04-18 08:21 | -23.62008 | 150.18870 | 33000 ft | 462 kts | 168° |
| 2026-04-18 08:21 | -23.68010 | 150.21469 | 33057 ft | 469 kts | 168° |
| 2026-04-18 08:21 | -23.71059 | 150.22787 | 33207 ft | 473 kts | 168° |
| 2026-04-18 08:22 | -23.74113 | 150.24113 | 33472 ft | 473 kts | 168° |
| 2026-04-18 08:22 | -23.77171 | 150.25444 | 33805 ft | 473 kts | 168° |
| 2026-04-18 08:22 | -23.80184 | 150.26756 | 34088 ft | 472 kts | 168° |
| 2026-04-18 08:22 | -23.83231 | 150.28084 | 34372 ft | 471 kts | 168° |
| 2026-04-18 08:23 | -23.86267 | 150.29407 | 34684 ft | 469 kts | 168° |
| 2026-04-18 08:23 | -23.89293 | 150.30725 | 34966 ft | 467 kts | 168° |
| 2026-04-18 08:23 | -23.92325 | 150.32043 | 34983 ft | 472 kts | 168° |
| 2026-04-18 08:24 | -23.98479 | 150.34714 | 35001 ft | 479 kts | 168° |
| 2026-04-18 08:24 | -24.04681 | 150.37420 | 34994 ft | 480 kts | 168° |
| 2026-04-18 08:25 | -24.10887 | 150.40133 | 35000 ft | 481 kts | 168° |
| 2026-04-18 08:25 | -24.17100 | 150.42850 | 34992 ft | 481 kts | 168° |
| 2026-04-18 08:26 | -24.23308 | 150.45567 | 34998 ft | 480 kts | 168° |
| 2026-04-18 08:26 | -24.29508 | 150.48282 | 35003 ft | 479 kts | 169° |
| 2026-04-18 08:27 | -24.35699 | 150.50993 | 35027 ft | 479 kts | 169° |
| 2026-04-18 08:27 | -24.41886 | 150.53705 | 35011 ft | 478 kts | 169° |
| 2026-04-18 08:28 | -24.48063 | 150.56424 | 35007 ft | 479 kts | 168° |
| 2026-04-18 08:28 | -24.51086 | 150.58074 | 34996 ft | 493 kts | 159° |
| 2026-04-18 08:28 | -24.53981 | 150.60122 | 35016 ft | 496 kts | 156° |
| 2026-04-18 08:29 | -24.59697 | 150.64400 | 35015 ft | 497 kts | 155° |
| 2026-04-18 08:29 | -24.65409 | 150.68685 | 35011 ft | 497 kts | 156° |
| 2026-04-18 08:30 | -24.71146 | 150.72910 | 35010 ft | 496 kts | 156° |
| 2026-04-18 08:30 | -24.76858 | 150.77085 | 35026 ft | 497 kts | 156° |
| 2026-04-18 08:31 | -24.82617 | 150.81296 | 35016 ft | 498 kts | 156° |
| 2026-04-18 08:31 | -24.88387 | 150.85527 | 35021 ft | 498 kts | 156° |
| 2026-04-18 08:32 | -24.94157 | 150.89764 | 35020 ft | 499 kts | 156° |
| 2026-04-18 08:32 | -24.99940 | 150.94018 | 35036 ft | 500 kts | 157° |
| 2026-04-18 08:33 | -25.05737 | 150.98284 | 35017 ft | 502 kts | 157° |
| 2026-04-18 08:33 | -25.11546 | 151.02566 | 35010 ft | 502 kts | 157° |
| 2026-04-18 08:34 | -25.17355 | 151.06853 | 35021 ft | 503 kts | 157° |
| 2026-04-18 08:34 | -25.23170 | 151.11149 | 35009 ft | 503 kts | 157° |
| 2026-04-18 08:35 | -25.28988 | 151.15453 | 35008 ft | 503 kts | 157° |
| 2026-04-18 08:35 | -25.34801 | 151.19756 | 35020 ft | 504 kts | 157° |
| 2026-04-18 08:36 | -25.40617 | 151.24068 | 35018 ft | 503 kts | 157° |
| 2026-04-18 08:36 | -25.46436 | 151.28386 | 35017 ft | 504 kts | 157° |
| 2026-04-18 08:37 | -25.52120 | 151.33014 | 35002 ft | 520 kts | 146° |
| 2026-04-18 08:37 | -25.57196 | 151.38692 | 35022 ft | 523 kts | 143° |
| 2026-04-18 08:38 | -25.62238 | 151.44460 | 34952 ft | 518 kts | 144° |
| 2026-04-18 08:38 | -25.64780 | 151.47327 | 34595 ft | 524 kts | 144° |
| 2026-04-18 08:38 | -25.67346 | 151.50195 | 34100 ft | 524 kts | 144° |
| 2026-04-18 08:38 | -25.69922 | 151.53062 | 33413 ft | 525 kts | 144° |
| 2026-04-18 08:39 | -25.72503 | 151.55927 | 32722 ft | 525 kts | 144° |
| 2026-04-18 08:39 | -25.75086 | 151.58790 | 32162 ft | 523 kts | 144° |
| 2026-04-18 08:39 | -25.77649 | 151.61628 | 31673 ft | 519 kts | 144° |
| 2026-04-18 08:39 | -25.80188 | 151.64457 | 31179 ft | 516 kts | 144° |
| 2026-04-18 08:40 | -25.82708 | 151.67270 | 30695 ft | 512 kts | 144° |
| 2026-04-18 08:40 | -25.85213 | 151.70069 | 30203 ft | 509 kts | 144° |
| 2026-04-18 08:40 | -25.87699 | 151.72846 | 29659 ft | 505 kts | 144° |
| 2026-04-18 08:40 | -25.90169 | 151.75605 | 29120 ft | 501 kts | 144° |
| 2026-04-18 08:41 | -25.92617 | 151.78332 | 28602 ft | 497 kts | 144° |
| 2026-04-18 08:41 | -25.95048 | 151.81041 | 28122 ft | 492 kts | 143° |
| 2026-04-18 08:41 | -25.97452 | 151.83729 | 27627 ft | 488 kts | 143° |
| 2026-04-18 08:41 | -25.99837 | 151.86392 | 27154 ft | 484 kts | 143° |
| 2026-04-18 08:42 | -26.02198 | 151.89041 | 26706 ft | 480 kts | 143° |
| 2026-04-18 08:42 | -26.04541 | 151.91671 | 26214 ft | 477 kts | 142° |
| 2026-04-18 08:42 | -26.06810 | 151.94359 | 25732 ft | 475 kts | 141° |
| 2026-04-18 08:42 | -26.09112 | 151.96960 | 25266 ft | 469 kts | 142° |
| 2026-04-18 08:43 | -26.11393 | 151.99466 | 24786 ft | 465 kts | 142° |
| 2026-04-18 08:43 | -26.13686 | 152.01990 | 24325 ft | 462 kts | 142° |
| 2026-04-18 08:43 | -26.15952 | 152.04502 | 23847 ft | 459 kts | 141° |
| 2026-04-18 08:43 | -26.18198 | 152.07006 | 23323 ft | 456 kts | 141° |
| 2026-04-18 08:44 | -26.20422 | 152.09498 | 22799 ft | 451 kts | 141° |
| 2026-04-18 08:44 | -26.22622 | 152.11972 | 22312 ft | 447 kts | 140° |
| 2026-04-18 08:44 | -26.24794 | 152.14417 | 21856 ft | 442 kts | 140° |
| 2026-04-18 08:44 | -26.26942 | 152.16838 | 21394 ft | 437 kts | 140° |
| 2026-04-18 08:45 | -26.29067 | 152.19236 | 20948 ft | 433 kts | 140° |
| 2026-04-18 08:45 | -26.31172 | 152.21611 | 20505 ft | 429 kts | 140° |
| 2026-04-18 08:45 | -26.33258 | 152.23965 | 20049 ft | 425 kts | 140° |
| 2026-04-18 08:45 | -26.35325 | 152.26297 | 19614 ft | 421 kts | 139° |
| 2026-04-18 08:46 | -26.37372 | 152.28609 | 19193 ft | 417 kts | 139° |
| 2026-04-18 08:46 | -26.39405 | 152.30905 | 18749 ft | 414 kts | 139° |
| 2026-04-18 08:46 | -26.41416 | 152.33178 | 18315 ft | 411 kts | 139° |
| 2026-04-18 08:46 | -26.43414 | 152.35439 | 17822 ft | 408 kts | 139° |
| 2026-04-18 08:47 | -26.45396 | 152.37683 | 17352 ft | 404 kts | 139° |
| 2026-04-18 08:47 | -26.47361 | 152.39907 | 16926 ft | 400 kts | 139° |
| 2026-04-18 08:47 | -26.49307 | 152.42109 | 16494 ft | 396 kts | 139° |
| 2026-04-18 08:47 | -26.51229 | 152.44288 | 16084 ft | 392 kts | 138° |
| 2026-04-18 08:48 | -26.53134 | 152.46450 | 15655 ft | 389 kts | 138° |
| 2026-04-18 08:48 | -26.55023 | 152.48595 | 15221 ft | 386 kts | 138° |
| 2026-04-18 08:48 | -26.56894 | 152.50717 | 14862 ft | 381 kts | 139° |
| 2026-04-18 08:48 | -26.58789 | 152.52872 | 14468 ft | 404 kts | 137° |
| 2026-04-18 08:49 | -26.60822 | 152.55213 | 14062 ft | 435 kts | 137° |
| 2026-04-18 08:49 | -26.62971 | 152.57647 | 14350 ft | 438 kts | 137° |
| 2026-04-18 08:49 | -26.65039 | 152.59997 | 14375 ft | 411 kts | 137° |
| 2026-04-18 08:49 | -26.66975 | 152.62206 | 14205 ft | 384 kts | 138° |
| 2026-04-18 08:50 | -26.68765 | 152.64247 | 14082 ft | 361 kts | 138° |
| 2026-04-18 08:50 | -26.70493 | 152.66208 | 13612 ft | 350 kts | 138° |
| 2026-04-18 08:50 | -26.72198 | 152.68142 | 12874 ft | 348 kts | 138° |
| 2026-04-18 08:50 | -26.73891 | 152.70069 | 12185 ft | 346 kts | 138° |
| 2026-04-18 08:51 | -26.75564 | 152.71978 | 11556 ft | 342 kts | 138° |
| 2026-04-18 08:51 | -26.77224 | 152.73870 | 10974 ft | 338 kts | 138° |
| 2026-04-18 08:51 | -26.78848 | 152.75716 | 10635 ft | 327 kts | 138° |
| 2026-04-18 08:51 | -26.80416 | 152.77511 | 10253 ft | 317 kts | 138° |
| 2026-04-18 08:52 | -26.81922 | 152.79236 | 10050 ft | 303 kts | 138° |
| 2026-04-18 08:52 | -26.83375 | 152.80900 | 9699 ft | 294 kts | 139° |
| 2026-04-18 08:52 | -26.84779 | 152.82508 | 9424 ft | 284 kts | 139° |
| 2026-04-18 08:52 | -26.86140 | 152.84065 | 9162 ft | 277 kts | 139° |
| 2026-04-18 08:53 | -26.87495 | 152.85611 | 8905 ft | 280 kts | 139° |
| 2026-04-18 08:53 | -26.88876 | 152.87185 | 8635 ft | 286 kts | 139° |
| 2026-04-18 08:53 | -26.90284 | 152.88793 | 8372 ft | 292 kts | 138° |
| 2026-04-18 08:53 | -26.91713 | 152.90429 | 8069 ft | 293 kts | 138° |
| 2026-04-18 08:54 | -26.93133 | 152.92057 | 7791 ft | 291 kts | 138° |
| 2026-04-18 08:54 | -26.94543 | 152.93676 | 7502 ft | 289 kts | 138° |
| 2026-04-18 08:54 | -26.95940 | 152.95279 | 7254 ft | 286 kts | 138° |
| 2026-04-18 08:54 | -26.97327 | 152.96871 | 6977 ft | 285 kts | 138° |
| 2026-04-18 08:55 | -26.98239 | 152.97920 | 6818 ft | 283 kts | 138° |
| 2026-04-18 08:55 | -27.00069 | 153.00020 | 6458 ft | 280 kts | 138° |
| 2026-04-18 08:55 | -27.01425 | 153.01579 | 6199 ft | 278 kts | 137° |
| 2026-04-18 08:55 | -27.02753 | 153.03103 | 5936 ft | 276 kts | 137° |
| 2026-04-18 08:56 | -27.04084 | 153.04633 | 5674 ft | 273 kts | 136° |
| 2026-04-18 08:56 | -27.05404 | 153.06150 | 5418 ft | 271 kts | 136° |
| 2026-04-18 08:56 | -27.06789 | 153.07584 | 4975 ft | 272 kts | 143° |
| 2026-04-18 08:56 | -27.08298 | 153.08831 | 4626 ft | 269 kts | 144° |
| 2026-04-18 08:57 | -27.11331 | 153.11264 | 4033 ft | 266 kts | 142° |
| 2026-04-18 08:57 | -27.12807 | 153.12467 | 3898 ft | 258 kts | 142° |
| 2026-04-18 08:57 | -27.14230 | 153.13641 | 3781 ft | 249 kts | 142° |
| 2026-04-18 08:58 | -27.15595 | 153.14773 | 3699 ft | 236 kts | 141° |
| 2026-04-18 08:58 | -27.16878 | 153.15840 | 3562 ft | 222 kts | 142° |
| 2026-04-18 08:58 | -27.18068 | 153.16832 | 3474 ft | 205 kts | 141° |
| 2026-04-18 08:58 | -27.19170 | 153.17751 | 3378 ft | 190 kts | 140° |
| 2026-04-18 08:59 | -27.20204 | 153.18620 | 3161 ft | 182 kts | 140° |
| 2026-04-18 08:59 | -27.21218 | 153.19419 | 2963 ft | 175 kts | 153° |
| 2026-04-18 08:59 | -27.22384 | 153.19488 | 2794 ft | 168 kts | 191° |
| 2026-04-18 08:59 | -27.23459 | 153.19045 | 2539 ft | 163 kts | 195° |
| 2026-04-18 09:00 | -27.24485 | 153.18544 | 2319 ft | 156 kts | 198° |
| 2026-04-18 09:00 | -27.25478 | 153.18024 | 2155 ft | 158 kts | 198° |
| 2026-04-18 09:00 | -27.26471 | 153.17470 | 2003 ft | 162 kts | 200° |
| 2026-04-18 09:00 | -27.27488 | 153.16882 | 1765 ft | 166 kts | 200° |
| 2026-04-18 09:01 | -27.28530 | 153.16304 | 1559 ft | 168 kts | 200° |
| 2026-04-18 09:01 | -27.29524 | 153.15724 | 1346 ft | 160 kts | 204° |
| 2026-04-18 09:01 | -27.30489 | 153.15136 | 1065 ft | 153 kts | 197° |
| 2026-04-18 09:01 | -27.31429 | 153.14627 | 900 ft | 149 kts | 198° |
| 2026-04-18 09:02 | -27.32361 | 153.14105 | 703 ft | 151 kts | 200° |
| 2026-04-18 09:02 | -27.33305 | 153.13553 | 584 ft | 151 kts | 204° |
| 2026-04-18 09:02 | -27.34258 | 153.13003 | 375 ft | 157 kts | 202° |
| 2026-04-18 09:02 | -27.35246 | 153.12433 | 170 ft | 161 kts | 204° |
| 2026-04-18 09:03 | -27.36219 | 153.11869 | 26 ft | 147 kts | 207° |
| 2026-04-18 09:03 | -27.37024 | 153.11418 | 18 ft | 108 kts | 206° |
| 2026-04-18 09:03 | -27.37559 | 153.11400 | 17 ft | 55 kts | 137° |